Time;durP1;ratioP1;P1;durP2;ratioP2;P2;SDS_P1;SDS_P2;PMS_P1;PMS_P2;Temp;Humidity;BMP_temperature;BMP_pressure;BME280_temperature;BME280_humidity;BME280_pressure;Samples;Min_cycle;Max_cycle;Signal;HPM_P1;HPM_P2
2023/07/21 00:02:38;;;;;;;8.50;1.47;;;;;;;13.80;85.04;100604.53;6049762;28;20046;-67
2023/07/21 00:05:33;;;;;;;3.93;1.70;;;;;;;13.99;84.44;100598.00;6058019;28;20346;-67
2023/07/21 00:08:29;;;;;;;5.80;1.60;;;;;;;13.96;84.41;100583.16;6049742;28;20303;-67
2023/07/21 00:11:24;;;;;;;2.78;1.60;;;;;;;14.11;84.35;100567.28;6050020;28;20261;-67
2023/07/21 00:14:19;;;;;;;4.87;1.60;;;;;;;14.30;83.13;100575.69;6048906;28;20018;-68
2023/07/21 00:17:15;;;;;;;5.27;1.60;;;;;;;14.30;81.90;100565.03;6049975;28;20029;-67
2023/07/21 00:20:19;;;;;;;6.13;2.67;;;;;;;14.22;81.73;100573.06;6070908;28;20040;-67
2023/07/21 00:23:16;;;;;;;7.25;1.88;;;;;;;14.13;82.41;100560.75;6052750;28;20350;-67
2023/07/21 00:26:13;;;;;;;3.63;1.60;;;;;;;14.07;82.52;100569.47;6049614;28;20060;-67
2023/07/21 00:29:08;;;;;;;4.40;1.55;;;;;;;13.95;82.97;100580.66;6060803;28;20523;-66
2023/07/21 00:32:05;;;;;;;5.75;1.67;;;;;;;13.88;84.28;100582.34;6049786;28;20066;-67
2023/07/21 00:35:01;;;;;;;4.10;1.50;;;;;;;13.83;84.02;100560.72;6048698;28;20061;-66
2023/07/21 00:38:01;;;;;;;4.57;1.20;;;;;;;13.80;84.12;100556.56;6057674;28;20041;-66
2023/07/21 00:40:56;;;;;;;4.00;1.60;;;;;;;13.78;84.68;100574.53;6049445;28;20038;-66
2023/07/21 00:43:51;;;;;;;3.92;1.23;;;;;;;13.97;84.34;100566.16;6048781;28;20022;-67
2023/07/21 00:46:47;;;;;;;3.80;1.70;;;;;;;13.93;84.85;100572.84;6055579;28;20377;-67
2023/07/21 00:49:43;;;;;;;5.47;1.70;;;;;;;13.82;84.03;100538.56;6052836;28;20037;-67
2023/07/21 00:52:39;;;;;;;5.30;1.80;;;;;;;13.94;84.55;100557.69;6053589;28;20331;-66
2023/07/21 00:55:34;;;;;;;3.92;1.92;;;;;;;13.83;85.11;100542.91;6048475;28;20037;-67
2023/07/21 00:58:30;;;;;;;4.90;1.67;;;;;;;13.92;85.87;100555.19;6048110;28;20073;-67
2023/07/21 01:01:25;;;;;;;5.63;1.70;;;;;;;13.64;85.88;100530.75;6049323;28;20094;-66
2023/07/21 01:04:22;;;;;;;3.23;1.60;;;;;;;13.74;86.55;100535.91;6048643;28;20104;-67
2023/07/21 01:07:18;;;;;;;2.95;1.50;;;;;;;13.95;85.13;100544.16;6053740;28;20025;-66
2023/07/21 01:10:13;;;;;;;7.47;1.52;;;;;;;14.05;84.91;100554.66;6052569;28;20036;-67
2023/07/21 01:13:10;;;;;;;4.57;2.10;;;;;;;13.92;86.18;100533.84;6048966;28;20397;-66
2023/07/21 01:16:05;;;;;;;4.18;1.60;;;;;;;14.06;85.89;100535.81;6050005;28;20107;-66
2023/07/21 01:19:01;;;;;;;5.05;1.80;;;;;;;14.03;85.63;100538.81;6064581;28;20041;-66
2023/07/21 01:22:12;;;;;;;6.38;2.08;;;;;;;14.06;85.86;100546.47;6077201;28;20025;-67
2023/07/21 01:25:11;;;;;;;3.75;2.00;;;;;;;14.08;86.77;100533.78;6055282;28;20041;-66
2023/07/21 01:28:07;;;;;;;4.78;2.10;;;;;;;13.84;86.70;100519.72;6056429;28;20108;-67
2023/07/21 01:31:02;;;;;;;5.25;1.90;;;;;;;14.00;87.40;100538.31;6057386;28;20125;-67
2023/07/21 01:33:58;;;;;;;6.93;2.20;;;;;;;14.10;87.94;100537.13;6052713;28;20436;-67
2023/07/21 01:36:54;;;;;;;6.65;2.05;;;;;;;14.12;88.08;100535.13;6053219;28;20030;-67
2023/07/21 01:39:51;;;;;;;3.42;1.75;;;;;;;13.96;87.47;100529.84;6053173;28;20485;-66
2023/07/21 01:42:47;;;;;;;3.55;1.85;;;;;;;13.96;87.65;100527.19;6053938;28;20112;-66
2023/07/21 01:45:42;;;;;;;5.07;2.35;;;;;;;13.89;88.48;100523.53;6052156;28;20030;-66
2023/07/21 01:48:38;;;;;;;5.47;1.80;;;;;;;14.07;88.18;100524.16;6053950;28;20033;-67
2023/07/21 01:51:34;;;;;;;7.15;1.98;;;;;;;14.06;87.60;100530.47;6052572;28;20037;-67
2023/07/21 01:54:45;;;;;;;6.45;1.65;;;;;;;14.07;88.43;100537.47;6052601;28;20058;-67
2023/07/21 01:57:45;;;;;;;4.90;1.70;;;;;;;14.32;87.39;100536.38;6051708;28;20042;-67
2023/07/21 02:00:41;;;;;;;6.22;1.73;;;;;;;14.31;88.46;100541.88;6052498;28;20393;-67
2023/07/21 02:03:38;;;;;;;5.70;1.88;;;;;;;14.11;89.66;100528.09;6050917;28;20038;-67
2023/07/21 02:06:33;;;;;;;3.60;1.50;;;;;;;14.02;91.75;100542.47;6051104;28;20060;-68
2023/07/21 02:09:28;;;;;;;3.72;1.42;;;;;;;13.75;94.32;100550.06;6052614;28;20497;-68
2023/07/21 02:12:24;;;;;;;4.40;1.97;;;;;;;13.58;95.62;100546.59;6053481;28;20041;-67
2023/07/21 02:15:19;;;;;;;3.58;1.67;;;;;;;13.38;97.32;100542.63;6057248;28;20029;-67
2023/07/21 02:18:15;;;;;;;3.37;1.60;;;;;;;13.39;98.00;100552.28;6064234;28;20053;-67
2023/07/21 02:21:10;;;;;;;5.00;2.10;;;;;;;13.47;99.04;100539.81;6075954;28;20275;-67
2023/07/21 02:24:06;;;;;;;5.30;1.50;;;;;;;13.67;99.10;100543.75;6075448;28;20272;-68
2023/07/21 02:27:02;;;;;;;5.82;1.67;;;;;;;13.72;98.51;100553.91;6066782;28;20276;-67
2023/07/21 02:29:57;;;;;;;4.32;1.73;;;;;;;13.54;99.45;100551.44;6061891;28;20050;-68
2023/07/21 02:32:52;;;;;;;4.60;1.83;;;;;;;13.45;100.00;100555.09;6051995;28;20030;-67
2023/07/21 02:35:47;;;;;;;6.53;2.07;;;;;;;13.28;100.00;100549.97;6051105;28;20281;-68
2023/07/21 02:38:43;;;;;;;3.00;1.60;;;;;;;13.18;100.00;100559.97;6055959;28;20036;-68
2023/07/21 02:41:38;;;;;;;5.93;1.90;;;;;;;13.20;100.00;100561.47;6051913;28;20054;-68
2023/07/21 02:44:34;;;;;;;2.90;1.50;;;;;;;13.26;100.00;100567.97;6050596;28;20057;-67
2023/07/21 02:47:29;;;;;;;4.00;2.00;;;;;;;13.09;100.00;100567.97;6051675;28;20100;-68
2023/07/21 02:50:26;;;;;;;3.40;1.53;;;;;;;12.99;100.00;100550.44;6056265;28;20116;-67
2023/07/21 02:53:22;;;;;;;5.68;1.80;;;;;;;13.20;100.00;100561.47;6065988;28;20036;-68
2023/07/21 02:56:18;;;;;;;6.30;1.90;;;;;;;13.22;100.00;100537.31;6075333;28;20029;-67
2023/07/21 02:59:14;;;;;;;5.68;2.20;;;;;;;13.08;100.00;100523.69;6073570;28;20310;-67
2023/07/21 03:02:09;;;;;;;8.63;2.53;;;;;;;13.16;100.00;100549.47;6061620;28;20037;-67
2023/07/21 03:05:05;;;;;;;3.63;1.65;;;;;;;12.99;100.00;100532.63;6050445;28;20034;-67
2023/07/21 03:08:01;;;;;;;4.97;2.10;;;;;;;13.15;100.00;100537.16;6050767;28;20409;-67
2023/07/21 03:10:56;;;;;;;6.75;1.73;;;;;;;13.15;100.00;100531.00;6051150;28;20125;-67
2023/07/21 03:13:52;;;;;;;5.97;2.00;;;;;;;13.40;100.00;100528.13;6048801;28;20061;-67
2023/07/21 03:16:47;;;;;;;4.23;1.90;;;;;;;13.52;100.00;100532.13;6062476;28;20033;-67
2023/07/21 03:19:42;;;;;;;4.97;1.90;;;;;;;13.48;100.00;100548.63;6055606;28;20035;-67
2023/07/21 03:22:38;;;;;;;4.60;1.88;;;;;;;13.57;100.00;100528.94;6074893;28;20256;-67
2023/07/21 03:25:34;;;;;;;10.38;2.15;;;;;;;13.61;100.00;100540.94;6073000;28;20044;-67
2023/07/21 03:28:31;;;;;;;4.18;1.95;;;;;;;13.99;100.00;100521.50;6062691;28;20048;-67
2023/07/21 03:31:26;;;;;;;5.43;2.15;;;;;;;14.05;100.00;100523.47;6065568;28;20026;-67
2023/07/21 03:34:22;;;;;;;4.90;2.07;;;;;;;13.96;100.00;100503.19;6055045;28;20416;-67
2023/07/21 03:37:17;;;;;;;5.27;1.97;;;;;;;13.91;99.90;100515.38;6063682;28;20256;-67
2023/07/21 03:40:12;;;;;;;4.27;2.13;;;;;;;14.10;100.00;100498.97;6074123;28;20279;-67
2023/07/21 03:43:08;;;;;;;5.37;2.10;;;;;;;14.03;98.03;100503.31;6074296;28;20044;-67
2023/07/21 03:46:05;;;;;;;7.10;2.17;;;;;;;14.10;97.34;100515.81;6073624;28;20260;-66
2023/07/21 03:49:00;;;;;;;5.82;1.95;;;;;;;14.02;96.84;100501.66;6053055;28;20030;-66
2023/07/21 03:51:55;;;;;;;3.90;1.60;;;;;;;14.04;97.69;100496.97;6052560;28;20033;-66
2023/07/21 03:54:51;;;;;;;5.37;1.97;;;;;;;14.21;97.39;100498.56;6063185;28;20460;-66
2023/07/21 03:57:46;;;;;;;3.07;1.87;;;;;;;13.91;96.46;100504.72;6060840;28;20039;-66
2023/07/21 04:00:45;;;;;;;5.70;2.07;;;;;;;13.62;97.65;100497.28;6053948;28;20041;-67
2023/07/21 04:03:40;;;;;;;4.03;1.80;;;;;;;13.46;98.92;100494.66;6060499;28;20053;-66
2023/07/21 04:06:36;;;;;;;3.35;2.13;;;;;;;13.72;100.00;100511.28;6050554;28;20076;-67
2023/07/21 04:09:31;;;;;;;5.27;2.10;;;;;;;13.55;100.00;100499.00;6049836;28;20037;-67
2023/07/21 04:12:28;;;;;;;5.15;2.13;;;;;;;13.49;99.58;100478.34;6053745;28;20275;-66
2023/07/21 04:15:25;;;;;;;5.20;2.17;;;;;;;13.52;100.00;100484.19;6049179;28;20437;-66
2023/07/21 04:18:20;;;;;;;5.30;2.17;;;;;;;13.46;100.00;100468.88;6050118;28;20034;-66
2023/07/21 04:21:15;;;;;;;4.25;2.15;;;;;;;13.58;100.00;100491.50;6066930;28;20473;-66
2023/07/21 04:24:11;;;;;;;3.90;1.90;;;;;;;13.59;100.00;100478.97;6053674;28;20030;-65
2023/07/21 04:27:06;;;;;;;4.57;2.10;;;;;;;13.54;100.00;100470.66;6065135;28;20017;-65
2023/07/21 04:30:02;;;;;;;6.22;2.42;;;;;;;13.52;100.00;100480.69;6052887;28;20485;-65
2023/07/21 04:32:58;;;;;;;6.50;2.20;;;;;;;13.25;100.00;100481.91;6071407;28;20017;-67
2023/07/21 04:35:53;;;;;;;3.70;2.25;;;;;;;13.23;100.00;100491.06;6065660;28;20025;-66
2023/07/21 04:38:49;;;;;;;3.73;1.93;;;;;;;13.23;100.00;100475.91;6055966;28;20413;-67
2023/07/21 04:41:44;;;;;;;5.40;2.15;;;;;;;13.33;100.00;100479.22;6073590;28;20032;-68
2023/07/21 04:44:40;;;;;;;4.05;2.10;;;;;;;13.38;100.00;100466.22;6072785;28;20028;-67
2023/07/21 04:47:35;;;;;;;5.93;2.57;;;;;;;13.58;100.00;100459.53;6073075;28;20025;-67
2023/07/21 04:50:30;;;;;;;5.90;2.20;;;;;;;13.88;100.00;100459.72;6068119;28;20607;-68
2023/07/21 04:53:26;;;;;;;5.57;2.30;;;;;;;13.90;99.32;100476.38;6056284;28;20034;-68
2023/07/21 04:56:21;;;;;;;7.97;2.03;;;;;;;13.90;99.69;100466.56;6054259;28;20026;-65
2023/07/21 04:59:16;;;;;;;4.57;2.43;;;;;;;13.98;98.54;100469.19;6054083;28;20260;-65
2023/07/21 05:02:11;;;;;;;5.67;2.17;;;;;;;13.92;97.10;100463.69;6053855;28;20245;-68
2023/07/21 05:05:07;;;;;;;5.47;2.77;;;;;;;14.03;96.19;100466.81;6053425;28;20030;-68
2023/07/21 05:08:03;;;;;;;4.78;1.90;;;;;;;14.26;94.78;100486.38;6054148;28;20033;-68
2023/07/21 05:10:58;;;;;;;4.32;2.00;;;;;;;14.39;93.67;100472.47;6053953;28;20065;-68
2023/07/21 05:13:53;;;;;;;4.07;2.20;;;;;;;14.36;92.50;100472.00;6053065;28;20029;-67
2023/07/21 05:16:49;;;;;;;5.03;2.10;;;;;;;14.50;93.14;100465.91;6053542;28;20022;-66
2023/07/21 05:19:44;;;;;;;4.13;1.87;;;;;;;14.72;91.43;100470.41;6058700;28;20042;-66
2023/07/21 05:22:39;;;;;;;4.83;2.20;;;;;;;14.44;92.21;100447.94;6072861;28;20087;-66
2023/07/21 05:25:35;;;;;;;6.27;2.47;;;;;;;14.67;92.84;100459.44;6052838;28;20026;-65
2023/07/21 05:28:30;;;;;;;6.37;2.20;;;;;;;14.58;91.17;100453.34;6053478;28;20477;-66
2023/07/21 05:31:25;;;;;;;4.67;2.10;;;;;;;14.67;91.90;100464.78;6053057;28;20064;-65
2023/07/21 05:34:22;;;;;;;5.30;1.95;;;;;;;14.70;91.82;100456.44;6052627;28;20705;-66
2023/07/21 05:37:17;;;;;;;4.40;2.13;;;;;;;14.94;90.93;100464.25;6053130;28;20022;-66
2023/07/21 05:40:12;;;;;;;4.20;2.10;;;;;;;15.07;88.27;100469.78;6056333;28;20635;-67
2023/07/21 05:43:08;;;;;;;3.03;1.97;;;;;;;15.27;87.29;100452.22;6053060;28;20629;-67
2023/07/21 05:46:05;;;;;;;3.83;1.80;;;;;;;15.52;85.81;100455.50;6052357;28;20473;-67
2023/07/21 05:49:00;;;;;;;8.85;1.90;;;;;;;15.38;84.29;100449.09;6053062;28;20101;-67
2023/07/21 05:51:55;;;;;;;3.73;1.70;;;;;;;15.41;85.48;100469.28;6052549;28;20028;-67
2023/07/21 05:54:51;;;;;;;4.50;1.50;;;;;;;15.35;84.60;100446.81;6060141;28;20040;-67
2023/07/21 05:57:46;;;;;;;6.22;1.52;;;;;;;15.37;83.60;100450.13;6052673;28;20026;-67
2023/07/21 06:00:41;;;;;;;7.83;1.60;;;;;;;15.14;83.33;100461.88;6052851;28;20030;-66
2023/07/21 06:03:40;;;;;;;4.93;1.60;;;;;;;15.17;82.79;100451.66;6051482;28;20033;-67
2023/07/21 06:06:35;;;;;;;3.05;1.50;;;;;;;15.33;83.16;100462.19;6052408;28;20355;-67
2023/07/21 06:09:31;;;;;;;3.35;1.63;;;;;;;15.58;82.07;100459.28;6052544;28;20038;-66
2023/07/21 06:12:26;;;;;;;3.77;1.20;;;;;;;15.49;80.60;100458.56;6061294;28;20061;-67
2023/07/21 06:15:24;;;;;;;3.45;1.52;;;;;;;15.79;79.81;100467.41;6051899;28;20046;-67
2023/07/21 06:18:19;;;;;;;3.42;1.80;;;;;;;15.55;79.76;100460.47;6052487;28;20029;-67
2023/07/21 06:21:15;;;;;;;2.90;1.35;;;;;;;15.65;81.27;100438.81;6069254;28;20122;-67
2023/07/21 06:24:10;;;;;;;4.10;1.90;;;;;;;15.61;80.88;100454.38;6075410;28;20022;-67
2023/07/21 06:27:05;;;;;;;6.17;1.70;;;;;;;15.49;82.50;100443.31;6066750;28;20065;-66
2023/07/21 06:30:01;;;;;;;4.93;1.73;;;;;;;15.87;81.85;100445.91;6062499;28;20037;-67
2023/07/21 06:32:56;;;;;;;4.37;1.50;;;;;;;16.18;80.81;100450.97;6052117;28;20061;-66
2023/07/21 06:35:52;;;;;;;4.95;1.70;;;;;;;15.98;81.11;100437.41;6051039;28;20285;-67
2023/07/21 06:38:47;;;;;;;4.75;1.65;;;;;;;16.35;78.15;100439.88;6052090;28;20040;-67
2023/07/21 06:41:44;;;;;;;4.77;1.67;;;;;;;16.25;79.18;100452.72;6051757;28;20488;-67
2023/07/21 06:44:39;;;;;;;3.92;1.52;;;;;;;16.39;77.51;100427.75;6062487;28;20041;-67
2023/07/21 06:47:34;;;;;;;3.60;1.60;;;;;;;16.60;75.49;100443.03;6051688;28;20033;-67
2023/07/21 06:50:30;;;;;;;3.57;1.33;;;;;;;16.21;74.44;100430.03;6051754;28;20072;-67
2023/07/21 06:53:25;;;;;;;3.83;1.90;;;;;;;16.36;75.32;100438.84;6052161;28;20350;-67
2023/07/21 06:56:20;;;;;;;3.58;1.70;;;;;;;16.71;74.79;100431.81;6075182;28;20025;-66
2023/07/21 06:59:16;;;;;;;6.23;1.90;;;;;;;16.63;74.15;100435.44;6063495;28;20075;-67
2023/07/21 07:02:12;;;;;;;5.17;1.40;;;;;;;16.70;74.69;100445.38;6051588;28;20351;-67
2023/07/21 07:05:08;;;;;;;3.97;1.48;;;;;;;17.16;73.51;100436.72;6050447;28;20036;-67
2023/07/21 07:08:03;;;;;;;4.97;1.95;;;;;;;17.15;72.31;100424.31;6051237;28;20021;-67
2023/07/21 07:10:58;;;;;;;2.58;1.38;;;;;;;16.79;73.97;100415.63;6051062;28;20029;-67
2023/07/21 07:13:54;;;;;;;4.82;1.95;;;;;;;16.90;75.08;100435.69;6049788;28;20072;-67
2023/07/21 07:16:50;;;;;;;4.23;1.80;;;;;;;17.07;75.27;100420.97;6052818;28;20497;-67
2023/07/21 07:19:45;;;;;;;2.88;1.48;;;;;;;17.24;72.76;100420.47;6056199;28;20343;-67
2023/07/21 07:22:40;;;;;;;6.80;1.60;;;;;;;17.26;73.76;100420.25;6074788;28;20033;-67
2023/07/21 07:25:36;;;;;;;3.37;1.37;;;;;;;17.53;71.36;100406.03;6073946;28;20798;-67
2023/07/21 07:28:31;;;;;;;3.23;1.57;;;;;;;18.11;69.59;100404.63;6075114;28;20017;-67
2023/07/21 07:31:26;;;;;;;4.43;1.37;;;;;;;18.15;68.27;100411.25;6061634;28;20030;-67
2023/07/21 07:34:21;;;;;;;4.00;1.33;;;;;;;18.31;68.04;100405.50;6049843;28;20307;-68
2023/07/21 07:37:18;;;;;;;3.67;1.47;;;;;;;18.68;66.51;100406.81;6050693;28;20033;-68
2023/07/21 07:40:13;;;;;;;5.63;1.35;;;;;;;18.28;67.95;100418.50;6050415;28;20034;-68
2023/07/21 07:43:08;;;;;;;3.17;1.27;;;;;;;18.46;67.77;100416.03;6050751;28;20034;-67
2023/07/21 07:46:07;;;;;;;3.40;1.40;;;;;;;18.42;68.40;100410.28;6053295;28;20017;-68
2023/07/21 07:49:03;;;;;;;3.13;1.45;;;;;;;19.38;64.55;100421.44;6054432;28;20351;-68
2023/07/21 07:51:58;;;;;;;2.80;1.67;;;;;;;18.93;64.29;100412.38;6048838;28;20040;-68
2023/07/21 07:54:54;;;;;;;3.45;1.52;;;;;;;18.65;65.38;100401.84;6063932;28;20056;-68
2023/07/21 07:57:49;;;;;;;2.90;1.60;;;;;;;20.11;61.38;100410.19;6074008;28;20384;-68
2023/07/21 08:00:45;;;;;;;2.90;1.40;;;;;;;20.17;61.17;100403.13;6073906;28;20026;-68
2023/07/21 08:03:43;;;;;;;3.65;1.33;;;;;;;19.21;63.16;100396.03;6064541;28;20469;-67
2023/07/21 08:06:40;;;;;;;4.80;1.52;;;;;;;19.18;64.82;100386.53;6050031;28;20097;-67
2023/07/21 08:09:35;;;;;;;3.47;1.55;;;;;;;19.17;64.05;100398.31;6049703;28;20036;-67
2023/07/21 08:12:31;;;;;;;3.67;1.47;;;;;;;19.56;63.95;100389.34;6050105;28;20021;-67
2023/07/21 08:15:26;;;;;;;3.27;1.80;;;;;;;19.32;63.20;100388.13;6049668;28;20456;-67
2023/07/21 08:18:22;;;;;;;4.22;1.48;;;;;;;19.39;64.45;100401.59;6062454;28;20034;-66
2023/07/21 08:21:22;;;;;;;2.60;1.50;;;;;;;19.87;62.25;100381.34;6054859;28;20025;-68
2023/07/21 08:24:17;;;;;;;3.00;1.65;;;;;;;19.57;64.73;100396.34;6061080;28;20508;-68
2023/07/21 08:27:13;;;;;;;3.60;2.00;;;;;;;19.97;62.57;100397.03;6049872;28;20026;-68
2023/07/21 08:30:09;;;;;;;3.27;1.80;;;;;;;20.45;61.84;100381.22;6049625;28;20656;-68
2023/07/21 08:33:04;;;;;;;3.38;1.38;;;;;;;20.62;61.51;100375.09;6049474;28;20045;-67
2023/07/21 08:35:59;;;;;;;4.00;1.40;;;;;;;20.93;59.22;100390.38;6059727;28;20389;-68
2023/07/21 08:38:55;;;;;;;3.00;1.47;;;;;;;20.95;58.85;100377.53;6049518;28;20088;-68
2023/07/21 08:41:50;;;;;;;2.33;1.30;;;;;;;21.50;56.98;100400.00;6049795;28;20117;-68
2023/07/21 08:44:46;;;;;;;3.88;1.30;;;;;;;21.81;57.44;100378.25;6048842;28;20026;-65
2023/07/21 08:47:41;;;;;;;4.53;1.95;;;;;;;21.59;56.74;100387.03;6049717;28;20113;-67
2023/07/21 08:50:38;;;;;;;2.27;1.60;;;;;;;21.31;58.07;100391.06;6050444;28;20120;-68
2023/07/21 08:53:34;;;;;;;3.00;1.50;;;;;;;21.48;58.28;100385.06;6050184;28;20306;-65
2023/07/21 08:56:29;;;;;;;2.67;1.20;;;;;;;21.68;55.85;100391.06;6051791;28;20025;-66
2023/07/21 08:59:24;;;;;;;2.95;1.40;;;;;;;22.13;55.76;100389.69;6049373;28;20053;-66
2023/07/21 09:02:37;;;;;;;3.20;1.50;;;;;;;22.36;53.88;100384.38;6049372;28;20026;-67
2023/07/21 09:05:32;;;;;;;3.88;1.50;;;;;;;22.70;55.10;100373.88;6048286;28;20100;-66
2023/07/21 09:08:30;;;;;;;2.72;1.60;;;;;;;22.36;53.17;100367.31;6049347;28;20030;-66
2023/07/21 09:11:26;;;;;;;3.40;1.70;;;;;;;22.13;54.49;100376.16;6048067;28;20030;-65
2023/07/21 09:14:34;;;;;;;1.80;1.30;;;;;;;22.04;54.61;100369.44;6048583;28;20473;-66
2023/07/21 09:17:29;;;;;;;2.78;1.42;;;;;;;22.89;52.79;100361.88;6049250;28;20026;-66
2023/07/21 09:20:29;;;;;;;3.57;1.50;;;;;;;22.70;52.15;100369.28;6048937;28;20037;-67
2023/07/21 09:23:26;;;;;;;3.30;1.70;;;;;;;22.97;50.19;100365.06;6063244;28;20024;-66
2023/07/21 09:26:22;;;;;;;5.40;1.60;;;;;;;22.94;50.32;100380.94;6053447;28;20037;-68
2023/07/21 09:29:18;;;;;;;3.35;2.00;;;;;;;22.90;49.59;100366.25;6048055;28;20101;-68
2023/07/21 09:32:15;;;;;;;4.72;1.60;;;;;;;22.24;51.65;100364.59;6049126;28;20026;-68
2023/07/21 09:35:10;;;;;;;4.10;2.03;;;;;;;22.60;50.45;100360.06;6048201;28;20064;-69
2023/07/21 09:38:11;;;;;;;3.28;1.85;;;;;;;23.63;47.83;100356.53;6054259;28;20029;-69
2023/07/21 09:41:09;;;;;;;2.83;1.50;;;;;;;24.41;46.72;100355.84;6060881;28;20061;-68
2023/07/21 09:44:05;;;;;;;2.72;1.40;;;;;;;24.97;45.94;100354.91;6051438;28;20056;-66
2023/07/21 09:47:00;;;;;;;2.47;1.63;;;;;;;24.42;47.07;100349.38;6051699;28;20376;-66
2023/07/21 09:49:58;;;;;;;3.00;1.65;;;;;;;23.53;48.53;100364.47;6051765;28;20029;-67
2023/07/21 09:52:55;;;;;;;2.88;1.50;;;;;;;23.65;49.11;100362.53;6052712;28;20028;-66
2023/07/21 09:55:51;;;;;;;2.97;1.70;;;;;;;23.79;48.58;100336.00;6052665;28;20022;-68
2023/07/21 09:58:54;;;;;;;2.97;1.80;;;;;;;23.57;48.27;100354.78;6051745;28;20108;-67
2023/07/21 10:01:49;;;;;;;3.08;1.88;;;;;;;23.58;48.53;100351.03;6051342;28;20061;-68
2023/07/21 10:04:44;;;;;;;3.10;2.03;;;;;;;24.03;45.90;100337.53;6050927;28;20393;-68
2023/07/21 10:07:42;;;;;;;2.65;1.73;;;;;;;24.13;44.79;100335.03;6052707;28;20369;-67
2023/07/21 10:10:38;;;;;;;2.85;1.55;;;;;;;24.34;45.82;100341.66;6052856;28;20029;-67
2023/07/21 10:13:33;;;;;;;2.38;1.58;;;;;;;25.13;44.85;100342.38;6050748;28;20092;-68
2023/07/21 10:16:30;;;;;;;3.58;1.65;;;;;;;23.84;46.55;100329.84;6050861;28;20036;-67
2023/07/21 10:19:28;;;;;;;2.38;1.58;;;;;;;23.22;48.11;100329.66;6052398;28;20034;-68
2023/07/21 10:22:24;;;;;;;3.50;1.60;;;;;;;22.79;50.22;100329.22;6065625;28;20550;-67
2023/07/21 10:25:23;;;;;;;4.03;1.65;;;;;;;23.35;49.46;100317.72;6073538;28;20033;-67
2023/07/21 10:28:33;;;;;;;23.38;16.08;;;;;;;23.40;48.96;100332.22;6052197;28;20347;-67
2023/07/21 10:31:29;;;;;;;4.15;1.70;;;;;;;23.33;48.10;100331.50;6052055;28;20038;-68
2023/07/21 10:34:40;;;;;;;3.45;1.70;;;;;;;23.24;48.12;100316.69;6051362;28;20032;-67
2023/07/21 10:37:36;;;;;;;2.65;1.48;;;;;;;23.37;47.17;100329.16;6051791;28;20083;-68
2023/07/21 10:40:31;;;;;;;2.17;1.50;;;;;;;23.25;48.96;100315.66;6051927;28;20501;-67
2023/07/21 10:43:26;;;;;;;2.47;1.50;;;;;;;23.08;47.35;100334.50;6056690;28;20037;-67
2023/07/21 10:46:22;;;;;;;3.08;1.80;;;;;;;22.78;47.53;100333.78;6051704;28;20025;-67
2023/07/21 10:49:18;;;;;;;5.00;1.80;;;;;;;22.43;48.48;100312.09;6051651;28;20026;-67
2023/07/21 10:52:14;;;;;;;2.67;1.83;;;;;;;22.37;49.70;100329.25;6051422;28;20410;-68
2023/07/21 10:55:09;;;;;;;4.57;1.63;;;;;;;21.83;50.23;100337.50;6050706;28;20036;-67
2023/07/21 10:58:05;;;;;;;3.17;1.50;;;;;;;21.86;51.91;100335.22;6062910;28;20038;-67
2023/07/21 11:01:00;;;;;;;3.70;1.60;;;;;;;22.07;51.31;100331.16;6051588;28;20041;-67
2023/07/21 11:03:57;;;;;;;2.90;1.55;;;;;;;22.61;51.62;100326.59;6050665;28;20526;-68
2023/07/21 11:06:54;;;;;;;3.00;1.58;;;;;;;21.80;54.80;100329.84;6051566;28;20049;-67
2023/07/21 11:09:51;;;;;;;3.42;1.70;;;;;;;20.89;57.18;100321.78;6051151;28;20025;-67
2023/07/21 11:12:50;;;;;;;2.80;1.50;;;;;;;20.36;60.72;100347.50;6051306;28;20029;-67
2023/07/21 11:15:55;;;;;;;2.83;1.90;;;;;;;19.85;65.68;100334.97;6056833;28;20030;-67
2023/07/21 11:18:51;;;;;;;3.55;2.00;;;;;;;19.80;69.41;100345.56;6051058;28;20038;-67
2023/07/21 11:21:46;;;;;;;2.77;1.80;;;;;;;20.25;66.70;100326.69;6051140;28;20029;-67
2023/07/21 11:24:42;;;;;;;4.75;1.92;;;;;;;20.60;66.68;100331.34;6069183;28;20442;-67
2023/07/21 11:27:46;;;;;;;3.00;1.70;;;;;;;21.26;61.16;100326.19;6074458;28;20029;-67
2023/07/21 11:30:47;;;;;;;4.75;2.05;;;;;;;21.59;57.36;100316.84;6070989;28;20623;-67
2023/07/21 11:33:45;;;;;;;4.20;1.42;;;;;;;21.80;55.97;100319.06;6048760;28;20026;-67
2023/07/21 11:36:41;;;;;;;2.90;1.52;;;;;;;22.28;54.02;100317.16;6050743;28;20032;-67
2023/07/21 11:39:36;;;;;;;2.17;1.35;;;;;;;22.14;50.05;100313.00;6050446;28;20026;-67
2023/07/21 11:42:42;;;;;;;4.13;1.57;;;;;;;22.03;54.49;100308.38;6050794;28;20062;-67
2023/07/21 11:45:39;;;;;;;2.92;1.58;;;;;;;22.45;51.82;100301.88;6052579;28;20273;-67
2023/07/21 11:48:34;;;;;;;3.75;1.52;;;;;;;22.78;51.88;100300.50;6058288;28;20064;-67
2023/07/21 11:51:29;;;;;;;6.77;1.53;;;;;;;22.88;51.27;100304.25;6050496;28;20026;-67
2023/07/21 11:54:26;;;;;;;3.88;1.67;;;;;;;22.73;52.47;100298.53;6049294;28;20072;-67
2023/07/21 11:57:21;;;;;;;2.13;1.40;;;;;;;22.81;52.39;100300.03;6058033;28;20029;-67
2023/07/21 12:00:17;;;;;;;4.13;1.70;;;;;;;22.63;51.40;100305.53;6073273;28;20021;-68
2023/07/21 12:03:13;;;;;;;3.15;1.80;;;;;;;22.20;53.42;100301.28;6057066;28;20037;-67
2023/07/21 12:06:10;;;;;;;2.80;1.67;;;;;;;22.06;53.47;100307.09;6049515;28;20032;-67
2023/07/21 12:09:06;;;;;;;2.25;1.42;;;;;;;22.30;53.40;100293.41;6049903;28;20478;-68
2023/07/21 12:12:01;;;;;;;3.58;1.50;;;;;;;22.71;50.30;100284.44;6049911;28;20045;-68
2023/07/21 12:14:57;;;;;;;3.60;1.50;;;;;;;23.42;48.70;100292.22;6049024;28;20057;-67
2023/07/21 12:17:52;;;;;;;2.30;1.40;;;;;;;23.45;47.94;100286.34;6049570;28;20288;-67
2023/07/21 12:20:47;;;;;;;3.00;1.10;;;;;;;23.81;45.82;100301.34;6046735;28;20034;-67
2023/07/21 12:23:43;;;;;;;2.47;1.40;;;;;;;23.80;48.23;100283.47;6064847;28;20371;-68
2023/07/21 12:26:39;;;;;;;4.00;1.88;;;;;;;23.87;45.90;100299.56;6067156;28;20030;-67
2023/07/21 12:29:34;;;;;;;3.73;2.13;;;;;;;23.45;49.16;100289.03;6045481;28;20068;-67
2023/07/21 12:32:30;;;;;;;3.17;1.90;;;;;;;23.26;47.67;100274.00;6046671;28;20061;-68
2023/07/21 12:35:25;;;;;;;4.03;1.60;;;;;;;23.54;46.33;100268.63;6064045;28;20065;-67
2023/07/21 12:38:20;;;;;;;2.95;1.80;;;;;;;23.36;48.15;100276.91;6070531;28;20025;-68
2023/07/21 12:41:16;;;;;;;3.42;1.40;;;;;;;23.19;46.08;100283.28;6046154;28;20045;-66
2023/07/21 12:44:11;;;;;;;3.90;1.40;;;;;;;22.64;45.23;100266.69;6045652;28;20046;-66
2023/07/21 12:47:08;;;;;;;2.87;1.40;;;;;;;22.46;45.83;100278.38;6047046;28;20034;-68
2023/07/21 12:50:04;;;;;;;2.63;1.50;;;;;;;22.13;46.68;100259.19;6046883;28;20385;-67
2023/07/21 12:52:59;;;;;;;2.60;1.38;;;;;;;21.88;47.76;100262.06;6046451;28;20061;-67
2023/07/21 12:55:55;;;;;;;2.50;1.50;;;;;;;21.75;50.21;100286.53;6045524;28;20462;-67
2023/07/21 12:58:50;;;;;;;3.03;1.70;;;;;;;21.32;51.79;100275.88;6052348;28;20045;-67
2023/07/21 13:01:46;;;;;;;2.97;1.80;;;;;;;21.14;52.76;100271.34;6070406;28;20057;-67
2023/07/21 13:04:42;;;;;;;3.60;1.90;;;;;;;21.23;53.73;100280.75;6069684;28;20383;-67
2023/07/21 13:07:39;;;;;;;3.40;1.90;;;;;;;21.05;55.40;100278.06;6071845;28;20291;-67
2023/07/21 13:10:35;;;;;;;6.18;1.90;;;;;;;20.91;56.37;100279.25;6074400;28;20112;-67
2023/07/21 13:13:30;;;;;;;4.93;2.15;;;;;;;21.01;56.59;100274.13;6076940;28;20068;-67
2023/07/21 13:16:26;;;;;;;8.77;2.40;;;;;;;20.78;57.07;100276.69;6055706;28;20030;-67
2023/07/21 13:19:21;;;;;;;5.35;2.38;;;;;;;20.65;58.26;100287.59;6054807;28;20076;-67
2023/07/21 13:22:16;;;;;;;6.27;2.17;;;;;;;20.29;65.15;100279.41;6053586;28;20358;-67
2023/07/21 13:25:12;;;;;;;4.50;2.30;;;;;;;19.61;70.00;100311.50;6062987;28;20060;-67
2023/07/21 13:28:07;;;;;;;7.70;2.50;;;;;;;18.97;76.31;100303.41;6075336;28;20029;-66
2023/07/21 13:31:02;;;;;;;5.23;2.40;;;;;;;18.21;82.52;100296.84;6058974;28;20026;-65
2023/07/21 13:33:58;;;;;;;6.03;2.67;;;;;;;17.88;87.29;100298.69;6052698;28;20025;-64
2023/07/21 13:36:53;;;;;;;7.13;2.50;;;;;;;17.76;91.01;100293.91;6053220;28;20041;-64
2023/07/21 13:39:48;;;;;;;5.80;2.90;;;;;;;17.60;90.32;100302.31;6053421;28;20057;-64